Camp H M Smith, HI

1:48 PM HST on October 20, 2014 (GMT -1000)
Kapolei | Change Station
CLOSE
Current Station
Personal Weather Station
Location: Kapolei, HI
Elevation: 108 ft
Nearby Weather Stations
Active Advisory: High Surf Advisory Active Notice: Record Report

Elev 108 ft 21.35 °N, 158.06 °W | Updated 3 minutes ago

Mostly Cloudy
Mostly Cloudy
84.7 °F
Feels Like 85 °F
N
7.0
Wind Variable Wind from East
Gusts 10.0 mph

Today
High -- | Low -- °F
--% Chance of Precip.
Yesterday
High -- | Low -- °F
Precip. -- in
6:29 AM 6:03 PM
Waning Crescent, 8% visible
Pressure 29.97 in
Visibility 10.0 miles
Clouds Few 2700 ft
Scattered Clouds 3600 ft
Scattered Clouds 4700 ft
Scattered Clouds 18000 ft
Mostly Cloudy 26000 ft
Heat Index 85 °F
Dew Point 60 °F
Humidity 43%
Rainfall 0.00 in
Snow Depth Not available.
UV 2.6 out of 12
Pollen Not available.
Air Quality Not available.
Flu Activity Sporadic
METAR PHNL 202253Z 04012G15KT 10SM FEW027 SCT036 SCT047 SCT180 BKN260 30/21 A2997 RMK AO2 SLP149 T03000211

More Conditions Fewer Conditions

Pressure 29.97 in
Visibility 10.0 miles
Clouds Few 2700 ft
Scattered Clouds 3600 ft
Scattered Clouds 4700 ft
Scattered Clouds 18000 ft
Mostly Cloudy 26000 ft
Heat Index 85 °F
Dew Point 60 °F
Humidity 43%
Rainfall 0.00 in
Snow Depth Not available.
UV 2.6 out of 12
Pollen Not available.
Air Quality Not available.
Flu Activity Sporadic
METAR PHNL 202253Z 04012G15KT 10SM FEW027 SCT036 SCT047 SCT180 BKN260 30/21 A2997 RMK AO2 SLP149 T03000211

More Conditions Fewer Conditions

10-Day Weather Forecast

Almanac

Astronomy

Oct. 20, 2014 Rise Set
Actual Time 6:29 AM HST 6:03 PM HST
Civil Twilight 6:06 AM HST 6:25 PM HST
Nautical Twilight 5:40 AM HST 6:51 PM HST
Astronomical Twilight 5:14 AM HST 7:17 PM HST
Moon 3:49 AM HST 4:13 PM HST
Length of Visible Light 12h 18m
Length of Day
11h 33m
Tomorrow will be 1m 9s shorter.
Waning Crescent, 8% of the Moon is Illuminated
Today
Waning Crescent
Oct 23
New
Oct 30
First Quarter
Nov 6
Full
Nov 14
Last Quarter

Today's Extremes

State Highs State Lows

Community

WunderPhotos

Upload Photos

1,763,548 photos uploaded!

WunderBlogs® & News

By Dr. Jeff Masters
Director of Meteorology, Weather Underground
By Kari Strenfel
Meteorologist, Weather Underground
By Christopher C. Burt
Weather Historian, Weather Underground
October 20, 2014
October 20, 2014
October 20, 2014

Nearby

Air Quality

  Air Quality AQ Index Pollutant
Monday Good
OZONE
Tuesday Good
OZONE

Snow Depth

Station Depth Elevation
No new snow has been reported.

Earthquake Activity

City Distance Mag. Time & Date
No recent earthquake activity has been reported nearby.
Minimum magnitude displayed is 2.5.

Coastal Water Temperatures

Place Temperature
No Stations Reporting

Nearby Weather Stations